Time;durP1;ratioP1;P1;durP2;ratioP2;P2;SDS_P1;SDS_P2;PMS_P1;PMS_P2;Temp;Humidity;BMP_temperature;BMP_pressure;BME280_temperature;BME280_humidity;BME280_pressure;Samples;Min_cycle;Max_cycle;Signal;HPM_P1;HPM_P2
2022/04/20 00:01:30;;;;;;;;;3.25;3.25;;;;;;;;5060049;28;45452;-67
2022/04/20 00:03:55;;;;;;;;;5.00;3.75;;;;;;;;5060060;28;45781;-67
2022/04/20 00:06:21;;;;;;;;;4.50;3.00;;;;;;;;5060137;28;45381;-70
2022/04/20 00:08:46;;;;;;;;;2.00;1.00;;;;;;;;5059809;28;46588;-71
2022/04/20 00:11:12;;;;;;;;;0.67;0.00;;;;;;;;5059854;28;45434;-67
2022/04/20 00:13:37;;;;;;;;;1.00;1.00;;;;;;;;5058910;28;45418;-66
2022/04/20 00:16:03;;;;;;;;;1.25;1.00;;;;;;;;5059981;28;45359;-66
2022/04/20 00:18:28;;;;;;;;;1.00;1.00;;;;;;;;5059369;28;46135;-66
2022/04/20 00:20:54;;;;;;;;;1.00;0.00;;;;;;;;5059591;28;45496;-66
2022/04/20 00:23:19;;;;;;;;;1.75;1.00;;;;;;;;5059825;28;45316;-70
2022/04/20 00:25:44;;;;;;;;;1.00;1.00;;;;;;;;5059804;28;45366;-69
2022/04/20 00:28:10;;;;;;;;;1.25;1.00;;;;;;;;5059664;28;45485;-70
2022/04/20 00:30:35;;;;;;;;;1.00;0.00;;;;;;;;5059391;28;45445;-69
2022/04/20 00:33:00;;;;;;;;;0.00;0.00;;;;;;;;5059771;28;45286;-70
2022/04/20 00:35:26;;;;;;;;;1.00;0.00;;;;;;;;5059814;28;45454;-69
2022/04/20 00:37:52;;;;;;;;;1.00;1.00;;;;;;;;5059198;28;45519;-69
2022/04/20 00:40:17;;;;;;;;;0.00;0.00;;;;;;;;5059425;28;45276;-66
2022/04/20 00:42:43;;;;;;;;;2.00;1.75;;;;;;;;5058561;28;45396;-66
2022/04/20 00:45:09;;;;;;;;;1.00;0.00;;;;;;;;5059986;28;45345;-66
2022/04/20 00:47:38;;;;;;;;;1.00;1.00;;;;;;;;5059225;28;45512;-66
2022/04/20 00:50:04;;;;;;;;;1.00;1.00;;;;;;;;5059081;28;45556;-70
2022/04/20 00:52:30;;;;;;;;;0.00;0.00;;;;;;;;5059264;28;45235;-67
2022/04/20 00:54:55;;;;;;;;;1.00;0.75;;;;;;;;5058314;28;45224;-66
2022/04/20 00:57:20;;;;;;;;;0.33;0.33;;;;;;;;5057478;28;45428;-69
2022/04/20 00:59:47;;;;;;;;;1.00;1.00;;;;;;;;5059088;28;45500;-67
2022/04/20 01:02:13;;;;;;;;;0.00;0.00;;;;;;;;5058126;28;45338;-67
2022/04/20 01:04:39;;;;;;;;;1.25;1.00;;;;;;;;5059246;28;45315;-67
2022/04/20 01:07:14;;;;;;;;;1.67;1.00;;;;;;;;5058767;28;46313;-66
2022/04/20 01:09:40;;;;;;;;;1.00;1.00;;;;;;;;5059013;28;45576;-70
2022/04/20 01:12:06;;;;;;;;;1.00;0.33;;;;;;;;5059087;28;45288;-69
2022/04/20 01:14:32;;;;;;;;;1.33;1.00;;;;;;;;5059137;28;45489;-70
2022/04/20 01:16:57;;;;;;;;;0.00;0.00;;;;;;;;5058621;28;45529;-69
2022/04/20 01:19:22;;;;;;;;;0.75;0.00;;;;;;;;5057274;28;45493;-70
2022/04/20 01:21:48;;;;;;;;;0.75;0.75;;;;;;;;5059009;28;45760;-70
2022/04/20 01:24:13;;;;;;;;;1.00;1.00;;;;;;;;5059258;28;45379;-69
2022/04/20 01:26:39;;;;;;;;;4.50;4.50;;;;;;;;5058621;28;46122;-66
2022/04/20 01:29:06;;;;;;;;;6.00;6.00;;;;;;;;5058561;28;45397;-67
2022/04/20 01:31:31;;;;;;;;;5.00;4.00;;;;;;;;5058688;28;45516;-70
2022/04/20 01:33:56;;;;;;;;;5.00;5.00;;;;;;;;5058589;28;45305;-69
2022/04/20 01:36:22;;;;;;;;;1.33;1.33;;;;;;;;5058356;28;45984;-66
2022/04/20 01:38:47;;;;;;;;;0.33;0.33;;;;;;;;5058500;28;45252;-67
2022/04/20 01:41:14;;;;;;;;;1.00;1.00;;;;;;;;5058965;28;45533;-67
2022/04/20 01:43:39;;;;;;;;;1.00;1.00;;;;;;;;5057376;28;45353;-66
2022/04/20 01:46:05;;;;;;;;;0.00;0.00;;;;;;;;5058169;28;45516;-66
2022/04/20 01:48:30;;;;;;;;;2.00;1.00;;;;;;;;5056970;28;45424;-66
2022/04/20 01:53:39;;;;;;;;;0.67;0.67;;;;;;;;5058639;28;45180;-66
2022/04/20 01:56:06;;;;;;;;;1.00;1.00;;;;;;;;5058096;28;45282;-67
2022/04/20 01:58:32;;;;;;;;;1.00;0.67;;;;;;;;5058029;28;45524;-68
2022/04/20 02:00:58;;;;;;;;;0.00;0.00;;;;;;;;5058229;28;45473;-70
2022/04/20 02:03:23;;;;;;;;;2.33;1.00;;;;;;;;5058372;28;45489;-70
2022/04/20 02:05:48;;;;;;;;;2.00;1.00;;;;;;;;5056595;28;48012;-68
2022/04/20 02:08:14;;;;;;;;;0.33;0.33;;;;;;;;5057968;28;45406;-70
2022/04/20 02:10:39;;;;;;;;;0.67;0.00;;;;;;;;5056832;28;45596;-70
2022/04/20 02:13:04;;;;;;;;;3.00;0.00;;;;;;;;5058219;28;45500;-70
2022/04/20 02:15:30;;;;;;;;;0.33;0.00;;;;;;;;5057859;28;45503;-66
2022/04/20 02:17:55;;;;;;;;;1.00;1.00;;;;;;;;5057862;28;45460;-66
2022/04/20 02:20:21;;;;;;;;;0.00;0.00;;;;;;;;5057839;28;45213;-67
2022/04/20 02:22:46;;;;;;;;;0.00;0.00;;;;;;;;5058375;28;45255;-66
2022/04/20 02:25:11;;;;;;;;;1.00;1.00;;;;;;;;5057667;28;45879;-66
2022/04/20 02:27:37;;;;;;;;;0.00;0.00;;;;;;;;5057799;28;45486;-66
2022/04/20 02:30:03;;;;;;;;;1.00;0.00;;;;;;;;5057694;28;45365;-67
2022/04/20 02:32:28;;;;;;;;;1.00;1.00;;;;;;;;5056588;28;45620;-66
2022/04/20 02:34:54;;;;;;;;;1.00;0.67;;;;;;;;5057444;28;46021;-67
2022/04/20 02:37:19;;;;;;;;;0.00;0.00;;;;;;;;5057803;28;45231;-66
2022/04/20 02:39:45;;;;;;;;;1.00;1.00;;;;;;;;5057830;28;45547;-66
2022/04/20 02:42:11;;;;;;;;;1.00;1.00;;;;;;;;5057830;28;45501;-67
2022/04/20 02:44:37;;;;;;;;;1.00;1.00;;;;;;;;5055959;28;45745;-66
2022/04/20 02:47:03;;;;;;;;;1.25;1.25;;;;;;;;5057350;28;45303;-66
2022/04/20 02:49:29;;;;;;;;;1.00;1.00;;;;;;;;5056179;28;45381;-66
2022/04/20 02:51:54;;;;;;;;;1.00;1.00;;;;;;;;5057663;28;45335;-66
2022/04/20 02:54:20;;;;;;;;;1.00;1.00;;;;;;;;5057617;28;45326;-66
2022/04/20 02:56:45;;;;;;;;;0.00;0.00;;;;;;;;5057348;28;45414;-66
2022/04/20 02:59:10;;;;;;;;;1.75;1.75;;;;;;;;5056065;28;45327;-66
2022/04/20 03:01:36;;;;;;;;;2.33;2.00;;;;;;;;5057834;28;45300;-66
2022/04/20 03:04:01;;;;;;;;;1.00;1.00;;;;;;;;5057323;28;45420;-66
2022/04/20 03:06:27;;;;;;;;;2.00;1.00;;;;;;;;5057086;28;45449;-67
2022/04/20 03:08:52;;;;;;;;;1.75;1.00;;;;;;;;5057221;28;45521;-66
2022/04/20 03:11:17;;;;;;;;;0.67;0.67;;;;;;;;5057708;28;45386;-66
2022/04/20 03:13:44;;;;;;;;;1.67;1.00;;;;;;;;5057070;28;46050;-66
2022/04/20 03:16:09;;;;;;;;;1.00;1.00;;;;;;;;5057158;28;45508;-66
2022/04/20 03:18:34;;;;;;;;;0.00;0.00;;;;;;;;5057790;28;45329;-66
2022/04/20 03:21:01;;;;;;;;;0.67;0.00;;;;;;;;5060885;28;45464;-67
2022/04/20 03:23:27;;;;;;;;;1.00;0.67;;;;;;;;5060506;28;46066;-67
2022/04/20 03:25:52;;;;;;;;;2.00;1.33;;;;;;;;5061135;28;45780;-70
2022/04/20 03:28:18;;;;;;;;;0.00;0.00;;;;;;;;5060984;28;45337;-70
2022/04/20 03:30:43;;;;;;;;;1.00;0.33;;;;;;;;5060637;28;45547;-70
2022/04/20 03:33:10;;;;;;;;;0.67;0.67;;;;;;;;5060574;28;46221;-70
2022/04/20 03:35:38;;;;;;;;;0.00;0.00;;;;;;;;5060447;28;45371;-69
2022/04/20 03:38:04;;;;;;;;;1.00;1.00;;;;;;;;5060355;28;45468;-70
2022/04/20 03:40:29;;;;;;;;;0.33;0.00;;;;;;;;5060654;28;45414;-67
2022/04/20 03:42:54;;;;;;;;;1.00;1.00;;;;;;;;5060265;28;46094;-68
2022/04/20 03:45:20;;;;;;;;;0.33;0.33;;;;;;;;5060804;28;45472;-66
2022/04/20 03:47:45;;;;;;;;;1.00;1.00;;;;;;;;5060387;28;45398;-66
2022/04/20 03:50:10;;;;;;;;;1.00;1.00;;;;;;;;5060352;28;45523;-69
2022/04/20 03:52:37;;;;;;;;;1.67;0.00;;;;;;;;5060079;28;46208;-67
2022/04/20 03:55:03;;;;;;;;;0.00;0.00;;;;;;;;5060103;28;45401;-70
2022/04/20 03:57:28;;;;;;;;;1.00;1.00;;;;;;;;5060021;28;45267;-69
2022/04/20 03:59:54;;;;;;;;;1.00;1.00;;;;;;;;5060561;28;45522;-70
2022/04/20 04:02:19;;;;;;;;;0.00;0.00;;;;;;;;5059865;28;45508;-70
2022/04/20 04:04:44;;;;;;;;;2.00;2.00;;;;;;;;5059934;28;45897;-70
2022/04/20 04:07:10;;;;;;;;;1.00;1.00;;;;;;;;5060334;28;45861;-70
2022/04/20 04:09:35;;;;;;;;;1.00;1.00;;;;;;;;5060256;28;45310;-70
2022/04/20 04:12:01;;;;;;;;;1.67;1.67;;;;;;;;5059874;28;46052;-67
2022/04/20 04:14:27;;;;;;;;;3.00;1.00;;;;;;;;5059636;28;45516;-66
2022/04/20 04:16:52;;;;;;;;;3.75;3.00;;;;;;;;5060212;28;45377;-68
2022/04/20 04:19:19;;;;;;;;;1.00;1.00;;;;;;;;5059889;28;45325;-66
2022/04/20 04:21:46;;;;;;;;;2.00;1.00;;;;;;;;5059718;28;45476;-66
2022/04/20 04:24:34;;;;;;;;;1.75;1.50;;;;;;;;5059518;28;45441;-66
2022/04/20 04:26:58;;;;;;;;;2.00;2.00;;;;;;;;5059549;28;45324;-67
2022/04/20 04:29:23;;;;;;;;;2.00;2.00;;;;;;;;5060021;28;45451;-66
2022/04/20 04:31:48;;;;;;;;;2.25;2.25;;;;;;;;5059279;28;45894;-66
2022/04/20 04:34:14;;;;;;;;;2.00;2.00;;;;;;;;5059474;28;45313;-67
2022/04/20 04:36:39;;;;;;;;;2.00;2.00;;;;;;;;5059537;28;45461;-66
2022/04/20 04:39:04;;;;;;;;;3.67;1.67;;;;;;;;5059784;28;45324;-67
2022/04/20 04:41:30;;;;;;;;;1.67;1.00;;;;;;;;5059399;28;46332;-70
2022/04/20 04:43:55;;;;;;;;;2.75;2.50;;;;;;;;5059580;28;45352;-69
2022/04/20 04:49:04;;;;;;;;;2.75;2.75;;;;;;;;5059484;28;45529;-70
2022/04/20 04:51:29;;;;;;;;;3.00;2.75;;;;;;;;5057659;28;45560;-69
2022/04/20 04:53:55;;;;;;;;;3.00;3.00;;;;;;;;5059405;28;45413;-70
2022/04/20 04:56:20;;;;;;;;;2.25;2.00;;;;;;;;5058072;28;45710;-66
2022/04/20 04:58:45;;;;;;;;;2.00;2.00;;;;;;;;5059378;28;45351;-66
2022/04/20 05:01:11;;;;;;;;;3.25;3.00;;;;;;;;5059108;28;45294;-66
2022/04/20 05:03:36;;;;;;;;;1.67;1.67;;;;;;;;5059089;28;45378;-66
2022/04/20 05:06:01;;;;;;;;;5.75;5.50;;;;;;;;5059194;28;45334;-67
2022/04/20 05:08:27;;;;;;;;;4.50;2.00;;;;;;;;5059430;28;45460;-67
2022/04/20 05:10:52;;;;;;;;;3.00;2.00;;;;;;;;5058834;28;45298;-68
2022/04/20 05:13:17;;;;;;;;;3.00;3.00;;;;;;;;5058756;28;45456;-66
2022/04/20 05:15:43;;;;;;;;;2.00;2.00;;;;;;;;5058959;28;45754;-66
2022/04/20 05:18:08;;;;;;;;;2.00;2.00;;;;;;;;5058933;28;45552;-67
2022/04/20 05:20:34;;;;;;;;;2.00;2.00;;;;;;;;5058768;28;46385;-66
2022/04/20 05:22:59;;;;;;;;;2.00;2.00;;;;;;;;5059224;28;45710;-67
2022/04/20 05:25:24;;;;;;;;;3.00;1.67;;;;;;;;5059362;28;45794;-66
2022/04/20 05:27:50;;;;;;;;;3.00;1.00;;;;;;;;5058922;28;45449;-66
2022/04/20 05:30:16;;;;;;;;;1.00;1.00;;;;;;;;5058578;28;45771;-67
2022/04/20 05:32:42;;;;;;;;;3.00;2.00;;;;;;;;5058560;28;45179;-70
2022/04/20 05:35:08;;;;;;;;;3.00;2.75;;;;;;;;5057216;28;45449;-67
2022/04/20 05:43:21;;;;;;;;;4.00;4.00;;;;;;;;5055762;28;45303;-66
2022/04/20 05:45:46;;;;;;;;;4.00;3.00;;;;;;;;5057370;28;45537;-66
2022/04/20 05:48:14;;;;;;;;;5.00;5.00;;;;;;;;5058506;28;45464;-66
2022/04/20 05:50:39;;;;;;;;;4.00;4.00;;;;;;;;5056793;28;45753;-66
2022/04/20 05:53:05;;;;;;;;;3.25;3.00;;;;;;;;5057916;28;45322;-67
2022/04/20 05:55:30;;;;;;;;;4.25;3.50;;;;;;;;5058568;28;45462;-66
2022/04/20 05:57:55;;;;;;;;;4.00;4.00;;;;;;;;5058196;28;45408;-67
2022/04/20 06:00:21;;;;;;;;;4.25;4.25;;;;;;;;5057939;28;45477;-67
2022/04/20 06:02:46;;;;;;;;;3.25;3.25;;;;;;;;5056800;28;45526;-66
2022/04/20 06:05:11;;;;;;;;;5.50;5.50;;;;;;;;5058112;28;45427;-69
2022/04/20 06:07:37;;;;;;;;;3.00;3.00;;;;;;;;5058225;28;45427;-67
2022/04/20 06:10:02;;;;;;;;;7.00;5.00;;;;;;;;5057897;28;46012;-66
2022/04/20 06:12:28;;;;;;;;;5.00;4.00;;;;;;;;5056899;28;45335;-66
2022/04/20 06:14:54;;;;;;;;;4.00;4.00;;;;;;;;5058042;28;45498;-66
2022/04/20 06:17:19;;;;;;;;;3.25;3.25;;;;;;;;5056771;28;45233;-66
2022/04/20 06:19:44;;;;;;;;;4.75;3.25;;;;;;;;5057569;28;46009;-66
2022/04/20 06:22:10;;;;;;;;;4.75;4.00;;;;;;;;5057667;28;45314;-67
2022/04/20 06:24:36;;;;;;;;;4.00;3.25;;;;;;;;5057880;28;46186;-67
2022/04/20 06:27:02;;;;;;;;;3.75;3.00;;;;;;;;5058434;28;45418;-70
2022/04/20 06:29:27;;;;;;;;;5.75;4.75;;;;;;;;5057465;28;45204;-66
2022/04/20 06:31:52;;;;;;;;;4.75;4.00;;;;;;;;5057677;28;45439;-66
2022/04/20 06:34:18;;;;;;;;;4.00;4.00;;;;;;;;5057911;28;45313;-66
2022/04/20 06:36:44;;;;;;;;;3.00;3.00;;;;;;;;5057595;28;45451;-66
2022/04/20 06:39:09;;;;;;;;;5.00;4.50;;;;;;;;5057343;28;46322;-67
2022/04/20 06:41:34;;;;;;;;;6.50;4.50;;;;;;;;5056062;28;45540;-69
2022/04/20 06:44:00;;;;;;;;;7.75;6.50;;;;;;;;5057934;28;45493;-66
2022/04/20 06:46:25;;;;;;;;;6.75;6.00;;;;;;;;5057743;28;45406;-66
2022/04/20 06:48:50;;;;;;;;;3.00;3.00;;;;;;;;5057229;28;46080;-66
2022/04/20 06:51:16;;;;;;;;;6.00;4.75;;;;;;;;5055904;28;45335;-66
2022/04/20 06:59:09;;;;;;;;;3.75;3.75;;;;;;;;5057033;28;45421;-66
2022/04/20 07:01:35;;;;;;;;;3.75;3.50;;;;;;;;5057460;28;45350;-66
2022/04/20 07:04:00;;;;;;;;;4.25;4.25;;;;;;;;5057713;28;45401;-66
2022/04/20 07:06:27;;;;;;;;;6.00;5.50;;;;;;;;5057519;28;45472;-66
2022/04/20 07:08:52;;;;;;;;;7.25;5.00;;;;;;;;5057113;28;45513;-66
2022/04/20 07:11:17;;;;;;;;;4.00;4.00;;;;;;;;5057109;28;45526;-66
2022/04/20 07:13:43;;;;;;;;;4.50;3.00;;;;;;;;5057107;28;45397;-67
2022/04/20 07:16:08;;;;;;;;;5.00;4.50;;;;;;;;5057127;28;45397;-66
2022/04/20 07:18:33;;;;;;;;;6.50;5.75;;;;;;;;5057180;28;46064;-66
2022/04/20 07:21:03;;;;;;;;;6.00;5.00;;;;;;;;5056996;28;45248;-67
2022/04/20 07:23:28;;;;;;;;;4.00;3.75;;;;;;;;5055699;28;45401;-66
2022/04/20 07:25:54;;;;;;;;;5.00;4.75;;;;;;;;5055753;28;45494;-67
2022/04/20 07:28:20;;;;;;;;;5.00;4.00;;;;;;;;5056632;28;45417;-67
2022/04/20 07:30:45;;;;;;;;;4.50;3.50;;;;;;;;5056480;28;45377;-66
2022/04/20 07:33:13;;;;;;;;;6.75;4.75;;;;;;;;5056748;28;45418;-67
2022/04/20 07:35:38;;;;;;;;;6.75;6.25;;;;;;;;5056962;28;45458;-67
2022/04/20 07:38:03;;;;;;;;;6.00;6.00;;;;;;;;5056623;28;45287;-66
2022/04/20 07:40:31;;;;;;;;;7.00;6.50;;;;;;;;5055293;28;45421;-66
2022/04/20 07:42:56;;;;;;;;;8.25;6.75;;;;;;;;5056863;28;45229;-67
2022/04/20 07:45:25;;;;;;;;;6.75;6.25;;;;;;;;5056721;28;45354;-66
2022/04/20 07:47:51;;;;;;;;;5.75;4.50;;;;;;;;5056555;28;45568;-66
2022/04/20 07:50:19;;;;;;;;;7.00;5.00;;;;;;;;5056499;28;45525;-66
2022/04/20 07:52:47;;;;;;;;;7.00;5.00;;;;;;;;5056596;28;45314;-66
2022/04/20 07:55:16;;;;;;;;;5.50;4.75;;;;;;;;5056704;28;45452;-68
2022/04/20 07:57:43;;;;;;;;;4.00;4.00;;;;;;;;5055957;28;45564;-69
2022/04/20 08:00:09;;;;;;;;;5.25;4.00;;;;;;;;5056474;28;45975;-66
2022/04/20 08:02:34;;;;;;;;;5.25;4.50;;;;;;;;5056580;28;45478;-66
2022/04/20 08:04:59;;;;;;;;;6.00;5.00;;;;;;;;5057636;28;45311;-66
2022/04/20 08:07:26;;;;;;;;;5.00;5.00;;;;;;;;5059497;28;45608;-66
2022/04/20 08:09:51;;;;;;;;;5.75;5.00;;;;;;;;5059939;28;45173;-66
2022/04/20 08:12:17;;;;;;;;;4.75;4.75;;;;;;;;5059830;28;45274;-66
2022/04/20 08:14:42;;;;;;;;;5.00;4.00;;;;;;;;5059868;28;45401;-66
2022/04/20 08:17:07;;;;;;;;;4.67;3.00;;;;;;;;5059900;28;46175;-66
2022/04/20 08:19:33;;;;;;;;;4.33;4.00;;;;;;;;5059580;28;45421;-67
2022/04/20 08:21:58;;;;;;;;;4.75;4.75;;;;;;;;5059672;28;45470;-67
2022/04/20 08:24:24;;;;;;;;;3.75;3.00;;;;;;;;5059760;28;45398;-66
2022/04/20 08:26:49;;;;;;;;;3.50;3.50;;;;;;;;5059350;28;46618;-66
2022/04/20 08:29:15;;;;;;;;;5.75;4.75;;;;;;;;5059184;28;45528;-66
2022/04/20 08:31:40;;;;;;;;;5.00;4.00;;;;;;;;5059631;28;45392;-67
2022/04/20 08:34:05;;;;;;;;;11.00;8.50;;;;;;;;5059814;28;45276;-67
2022/04/20 08:36:31;;;;;;;;;16.50;14.50;;;;;;;;5059219;28;45262;-67
2022/04/20 08:38:56;;;;;;;;;26.50;26.00;;;;;;;;5058886;28;45615;-66
2022/04/20 08:41:22;;;;;;;;;19.25;19.00;;;;;;;;5059214;28;45529;-67
2022/04/20 08:43:47;;;;;;;;;10.00;9.25;;;;;;;;5059150;28;45275;-66
2022/04/20 08:46:14;;;;;;;;;6.25;5.75;;;;;;;;5059032;28;45705;-66
2022/04/20 08:48:40;;;;;;;;;7.25;6.00;;;;;;;;5057974;28;45413;-66
2022/04/20 08:51:06;;;;;;;;;6.00;6.00;;;;;;;;5057593;28;45408;-66
2022/04/20 08:53:32;;;;;;;;;4.75;4.25;;;;;;;;5059432;28;45391;-66
2022/04/20 08:58:43;;;;;;;;;3.00;3.00;;;;;;;;5059004;28;45437;-66
2022/04/20 09:01:11;;;;;;;;;4.00;3.00;;;;;;;;5057754;28;45458;-66
2022/04/20 09:03:36;;;;;;;;;4.00;4.00;;;;;;;;5058913;28;45330;-66
2022/04/20 09:06:02;;;;;;;;;5.00;5.00;;;;;;;;5058330;28;46224;-66
2022/04/20 09:08:27;;;;;;;;;4.67;4.00;;;;;;;;5058512;28;45282;-66
2022/04/20 09:10:53;;;;;;;;;4.00;2.00;;;;;;;;5058322;28;45492;-67
2022/04/20 09:13:30;;;;;;;;;2.67;2.00;;;;;;;;5058640;28;45264;-66
2022/04/20 09:16:03;;;;;;;;;2.00;1.33;;;;;;;;5057331;28;46043;-66
2022/04/20 09:18:29;;;;;;;;;4.67;4.00;;;;;;;;5058256;28;45240;-66
2022/04/20 09:21:04;;;;;;;;;6.00;4.00;;;;;;;;5058548;28;45581;-69
2022/04/20 09:23:29;;;;;;;;;4.75;3.75;;;;;;;;5058628;28;45474;-66
2022/04/20 09:25:54;;;;;;;;;2.00;2.00;;;;;;;;5056923;28;47679;-67
2022/04/20 09:28:22;;;;;;;;;4.00;3.00;;;;;;;;5057086;28;45764;-66
2022/04/20 09:30:51;;;;;;;;;4.00;3.00;;;;;;;;5057086;28;45295;-68
2022/04/20 09:33:16;;;;;;;;;3.00;3.00;;;;;;;;5058724;28;45279;-69
2022/04/20 09:35:49;;;;;;;;;4.00;3.67;;;;;;;;5058008;28;45335;-66
2022/04/20 09:38:19;;;;;;;;;2.67;2.67;;;;;;;;5056652;28;45371;-69
2022/04/20 09:40:44;;;;;;;;;3.00;3.00;;;;;;;;5058394;28;45307;-67
2022/04/20 09:43:15;;;;;;;;;3.00;3.00;;;;;;;;5058766;28;45267;-66
2022/04/20 09:45:41;;;;;;;;;9.75;9.75;;;;;;;;5058293;28;45386;-66
2022/04/20 09:51:11;;;;;;;;;4.00;3.00;;;;;;;;5058109;28;45399;-67
2022/04/20 09:53:36;;;;;;;;;4.00;3.00;;;;;;;;5056782;28;45523;-66
2022/04/20 09:56:15;;;;;;;;;2.00;2.00;;;;;;;;5057824;28;45312;-68
2022/04/20 09:58:40;;;;;;;;;3.67;3.00;;;;;;;;5057931;28;45269;-67
2022/04/20 10:01:06;;;;;;;;;25.50;24.25;;;;;;;;5057674;28;45375;-69
2022/04/20 10:03:32;;;;;;;;;24.75;22.50;;;;;;;;5058178;28;45425;-69
2022/04/20 10:05:58;;;;;;;;;14.75;12.50;;;;;;;;5057353;28;45456;-66
2022/04/20 10:08:24;;;;;;;;;13.75;13.75;;;;;;;;5057637;28;45450;-66
2022/04/20 10:10:52;;;;;;;;;16.50;15.50;;;;;;;;5057647;28;45218;-67
2022/04/20 10:13:17;;;;;;;;;15.75;14.00;;;;;;;;5057603;28;45423;-67
2022/04/20 10:16:05;;;;;;;;;11.50;11.25;;;;;;;;5057858;28;45386;-67
2022/04/20 10:18:31;;;;;;;;;6.67;5.33;;;;;;;;5057502;28;45472;-66
2022/04/20 10:20:58;;;;;;;;;25.75;24.50;;;;;;;;5057566;28;45299;-66
2022/04/20 10:23:24;;;;;;;;;7.33;7.33;;;;;;;;5057515;28;46133;-68
2022/04/20 10:25:50;;;;;;;;;6.00;6.00;;;;;;;;5057353;28;45521;-67
2022/04/20 10:28:17;;;;;;;;;7.00;6.67;;;;;;;;5057439;28;45425;-66
2022/04/20 10:30:45;;;;;;;;;7.00;7.00;;;;;;;;5057634;28;45314;-67
2022/04/20 10:33:16;;;;;;;;;4.00;2.67;;;;;;;;5057573;28;45382;-66
2022/04/20 10:35:55;;;;;;;;;5.00;4.00;;;;;;;;5056883;28;46569;-68
2022/04/20 10:38:20;;;;;;;;;5.00;4.00;;;;;;;;5057108;28;45439;-67
2022/04/20 10:40:56;;;;;;;;;6.50;5.75;;;;;;;;5056376;28;45266;-66
2022/04/20 10:43:23;;;;;;;;;7.00;6.00;;;;;;;;5057384;28;45286;-67
2022/04/20 10:46:08;;;;;;;;;10.50;10.00;;;;;;;;5057005;28;45485;-67
2022/04/20 10:48:48;;;;;;;;;6.00;5.75;;;;;;;;5057549;28;45321;-69
2022/04/20 10:51:19;;;;;;;;;12.75;10.00;;;;;;;;5057636;28;45338;-69
2022/04/20 10:53:48;;;;;;;;;6.00;4.00;;;;;;;;5057455;28;45286;-69
2022/04/20 10:56:14;;;;;;;;;6.00;5.00;;;;;;;;5057347;28;45436;-69
2022/04/20 10:58:58;;;;;;;;;4.00;4.00;;;;;;;;5055593;28;45262;-69
2022/04/20 11:01:23;;;;;;;;;3.33;3.00;;;;;;;;5056974;28;45181;-69
2022/04/20 11:03:55;;;;;;;;;2.67;2.00;;;;;;;;5057678;28;45342;-67
2022/04/20 11:06:20;;;;;;;;;3.33;2.67;;;;;;;;5056790;28;45411;-69
2022/04/20 11:08:49;;;;;;;;;4.00;3.00;;;;;;;;5057312;28;45382;-66
2022/04/20 11:19:50;;;;;;;;;5.33;5.00;;;;;;;;5056991;28;45295;-67
2022/04/20 11:22:15;;;;;;;;;3.33;3.00;;;;;;;;5057053;28;45245;-66
2022/04/20 11:24:41;;;;;;;;;4.50;4.00;;;;;;;;5056980;28;45466;-66
2022/04/20 11:27:07;;;;;;;;;3.67;3.00;;;;;;;;5055091;28;46234;-67
2022/04/20 11:29:33;;;;;;;;;5.00;5.00;;;;;;;;5056510;28;45508;-66
2022/04/20 11:31:59;;;;;;;;;6.00;4.33;;;;;;;;5056619;28;45255;-68
2022/04/20 11:34:26;;;;;;;;;3.67;3.67;;;;;;;;5057005;28;45420;-67
2022/04/20 11:36:55;;;;;;;;;4.33;4.00;;;;;;;;5056648;28;45319;-69
2022/04/20 11:39:22;;;;;;;;;4.00;4.00;;;;;;;;5057186;28;45407;-68
2022/04/20 11:41:48;;;;;;;;;3.00;2.00;;;;;;;;5060573;28;45600;-66
2022/04/20 11:44:21;;;;;;;;;4.33;4.33;;;;;;;;5060211;28;45433;-66
2022/04/20 11:46:47;;;;;;;;;5.67;4.67;;;;;;;;5059837;28;46037;-67
2022/04/20 11:49:12;;;;;;;;;4.67;4.00;;;;;;;;5059739;28;45915;-67
2022/04/20 11:51:38;;;;;;;;;4.50;4.50;;;;;;;;5060118;28;45510;-67
2022/04/20 11:54:04;;;;;;;;;2.00;2.00;;;;;;;;5060260;28;45411;-67
2022/04/20 11:56:33;;;;;;;;;4.33;3.67;;;;;;;;5059902;28;46045;-67
2022/04/20 11:58:59;;;;;;;;;4.00;3.00;;;;;;;;5059796;28;45264;-66
2022/04/20 12:01:27;;;;;;;;;16.75;14.25;;;;;;;;5059908;28;45445;-67
2022/04/20 12:03:54;;;;;;;;;3.00;2.33;;;;;;;;5058766;28;45477;-66
2022/04/20 12:06:23;;;;;;;;;5.00;4.00;;;;;;;;5059787;28;46076;-67
2022/04/20 12:08:51;;;;;;;;;6.00;5.00;;;;;;;;5059675;28;45359;-67
2022/04/20 12:11:16;;;;;;;;;5.00;3.00;;;;;;;;5059707;28;45497;-69
2022/04/20 12:13:41;;;;;;;;;3.33;3.00;;;;;;;;5059986;28;45471;-70
2022/04/20 12:16:08;;;;;;;;;4.00;3.00;;;;;;;;5059464;28;46531;-67
2022/04/20 12:18:35;;;;;;;;;4.00;3.00;;;;;;;;5059481;28;45427;-69
2022/04/20 12:21:05;;;;;;;;;3.67;3.67;;;;;;;;5059602;28;45434;-69
2022/04/20 12:23:37;;;;;;;;;3.67;3.00;;;;;;;;5059455;28;45484;-70
2022/04/20 12:26:03;;;;;;;;;5.33;4.33;;;;;;;;5058999;28;46518;-69
2022/04/20 12:28:35;;;;;;;;;4.67;3.00;;;;;;;;5059448;28;45502;-70
2022/04/20 12:31:01;;;;;;;;;9.25;8.00;;;;;;;;5057776;28;45336;-70
2022/04/20 12:33:27;;;;;;;;;9.00;8.00;;;;;;;;5058055;28;45527;-69
2022/04/20 12:35:58;;;;;;;;;8.25;7.00;;;;;;;;5059079;28;45290;-70
2022/04/20 12:38:24;;;;;;;;;4.00;3.33;;;;;;;;5058285;28;45480;-69
2022/04/20 12:40:49;;;;;;;;;3.00;3.00;;;;;;;;5058962;28;45321;-68
2022/04/20 12:43:14;;;;;;;;;2.00;2.00;;;;;;;;5059084;28;45358;-67
2022/04/20 12:45:40;;;;;;;;;4.00;3.67;;;;;;;;5058919;28;45463;-66
2022/04/20 12:48:11;;;;;;;;;3.00;3.00;;;;;;;;5058763;28;45331;-67
2022/04/20 12:50:37;;;;;;;;;6.00;5.00;;;;;;;;5057490;28;45302;-66
2022/04/20 12:53:02;;;;;;;;;2.67;2.00;;;;;;;;5057986;28;45316;-70
2022/04/20 13:04:11;;;;;;;;;2.00;2.00;;;;;;;;5058725;28;45418;-66
2022/04/20 13:06:37;;;;;;;;;3.33;3.00;;;;;;;;5058619;28;45396;-67
2022/04/20 13:09:03;;;;;;;;;2.33;2.00;;;;;;;;5058694;28;45212;-69
2022/04/20 13:11:28;;;;;;;;;2.00;2.00;;;;;;;;5058663;28;45325;-67
2022/04/20 13:13:56;;;;;;;;;3.33;3.00;;;;;;;;5058981;28;45378;-67
2022/04/20 13:16:21;;;;;;;;;4.00;4.00;;;;;;;;5058197;28;46870;-67
2022/04/20 13:18:46;;;;;;;;;12.75;11.50;;;;;;;;5056895;28;45490;-69
2022/04/20 13:21:12;;;;;;;;;6.50;6.00;;;;;;;;5058343;28;45714;-68
2022/04/20 13:23:37;;;;;;;;;5.75;5.75;;;;;;;;5058621;28;45338;-67
2022/04/20 13:28:47;;;;;;;;;6.00;5.00;;;;;;;;5058379;28;45271;-66
2022/04/20 13:31:13;;;;;;;;;4.50;3.75;;;;;;;;5058320;28;45371;-66
2022/04/20 13:33:39;;;;;;;;;4.00;4.00;;;;;;;;5056856;28;45544;-67
2022/04/20 13:36:04;;;;;;;;;5.33;4.00;;;;;;;;5056737;28;45604;-67
2022/04/20 13:38:31;;;;;;;;;6.00;4.00;;;;;;;;5058117;28;45238;-69
2022/04/20 13:40:56;;;;;;;;;5.00;4.75;;;;;;;;5056855;28;45347;-69
2022/04/20 13:43:21;;;;;;;;;3.00;3.00;;;;;;;;5058421;28;45477;-69
2022/04/20 13:45:48;;;;;;;;;3.00;3.00;;;;;;;;5057578;28;45987;-67
2022/04/20 13:48:13;;;;;;;;;2.00;1.00;;;;;;;;5058022;28;45336;-67
2022/04/20 13:50:39;;;;;;;;;2.00;2.00;;;;;;;;5058140;28;45398;-66
2022/04/20 13:53:06;;;;;;;;;2.00;2.00;;;;;;;;5058102;28;45445;-68
2022/04/20 13:55:31;;;;;;;;;2.00;2.00;;;;;;;;5057875;28;45522;-67
2022/04/20 13:57:56;;;;;;;;;1.67;1.00;;;;;;;;5058163;28;45224;-67
2022/04/20 14:00:22;;;;;;;;;2.00;2.00;;;;;;;;5056521;28;45504;-67
2022/04/20 14:02:48;;;;;;;;;2.67;2.67;;;;;;;;5057717;28;45287;-68
2022/04/20 14:05:14;;;;;;;;;7.50;7.00;;;;;;;;5057770;28;45422;-70
2022/04/20 14:07:40;;;;;;;;;1.00;1.00;;;;;;;;5057695;28;45236;-67
2022/04/20 14:10:08;;;;;;;;;4.00;3.00;;;;;;;;5057750;28;45489;-67
2022/04/20 14:12:33;;;;;;;;;3.33;3.33;;;;;;;;5057988;28;45343;-69
2022/04/20 14:15:00;;;;;;;;;2.00;1.67;;;;;;;;5057689;28;45975;-67
2022/04/20 14:17:25;;;;;;;;;3.00;3.00;;;;;;;;5056404;28;45360;-66
2022/04/20 14:19:51;;;;;;;;;8.50;8.00;;;;;;;;5057455;28;45545;-67
2022/04/20 14:22:16;;;;;;;;;4.33;3.00;;;;;;;;5056606;28;45402;-67
2022/04/20 14:24:42;;;;;;;;;3.00;2.75;;;;;;;;5057208;28;45510;-67
2022/04/20 14:32:35;;;;;;;;;4.25;2.75;;;;;;;;5057359;28;45433;-70
2022/04/20 14:35:00;;;;;;;;;2.00;2.00;;;;;;;;5057272;28;46004;-67
2022/04/20 14:37:26;;;;;;;;;2.00;1.00;;;;;;;;5057256;28;45305;-67
2022/04/20 14:39:51;;;;;;;;;2.75;2.00;;;;;;;;5057460;28;45453;-69
2022/04/20 14:42:17;;;;;;;;;3.00;2.33;;;;;;;;5057289;28;45454;-67
2022/04/20 14:44:44;;;;;;;;;2.00;2.00;;;;;;;;5055501;28;45834;-66
2022/04/20 14:47:13;;;;;;;;;1.00;1.00;;;;;;;;5057005;28;45275;-66
2022/04/20 14:49:39;;;;;;;;;4.00;3.00;;;;;;;;5057204;28;45235;-67
2022/04/20 14:52:08;;;;;;;;;2.00;2.00;;;;;;;;5057230;28;45417;-67
2022/04/20 14:54:34;;;;;;;;;2.00;2.00;;;;;;;;5056581;28;46259;-67
2022/04/20 14:57:00;;;;;;;;;2.00;1.33;;;;;;;;5056962;28;45392;-70
2022/04/20 14:59:25;;;;;;;;;3.00;2.00;;;;;;;;5056861;28;45638;-67
2022/04/20 15:01:50;;;;;;;;;4.00;4.00;;;;;;;;5056806;28;45278;-69
2022/04/20 15:04:16;;;;;;;;;3.00;2.50;;;;;;;;5057114;28;45417;-66
2022/04/20 15:06:41;;;;;;;;;2.33;2.00;;;;;;;;5056927;28;45480;-67
2022/04/20 15:09:08;;;;;;;;;2.00;2.00;;;;;;;;5056862;28;45521;-67
2022/04/20 15:11:37;;;;;;;;;2.00;2.00;;;;;;;;5057057;28;45468;-66
2022/04/20 15:14:03;;;;;;;;;3.75;3.00;;;;;;;;5055948;28;45616;-67
2022/04/20 15:16:29;;;;;;;;;2.00;2.00;;;;;;;;5057044;28;45438;-70
2022/04/20 15:18:55;;;;;;;;;1.75;1.75;;;;;;;;5056755;28;45445;-66
2022/04/20 15:21:20;;;;;;;;;24.75;20.75;;;;;;;;5056888;28;45255;-68
2022/04/20 15:23:45;;;;;;;;;3.67;3.00;;;;;;;;5056680;28;46236;-67